sensor_id;sensor_type;location;lat;lon;timestamp;pressure;altitude;pressure_sealevel;temperature;humidity
73558;BME280;61829;53.286;10.434;2023-06-10T00:01:49;101609.94;;;14.11;80.95
73558;BME280;61829;53.286;10.434;2023-06-10T00:04:15;101607.34;;;14.03;81.46
73558;BME280;61829;53.286;10.434;2023-06-10T00:06:43;101612.31;;;14.00;81.95
73558;BME280;61829;53.286;10.434;2023-06-10T00:09:10;101605.38;;;13.97;82.12
73558;BME280;61829;53.286;10.434;2023-06-10T00:11:40;101607.91;;;13.84;82.90
73558;BME280;61829;53.286;10.434;2023-06-10T00:14:07;101614.09;;;13.78;82.85
73558;BME280;61829;53.286;10.434;2023-06-10T00:16:33;101614.09;;;13.78;83.34
73558;BME280;61829;53.286;10.434;2023-06-10T00:19:03;101612.50;;;13.68;84.15
73558;BME280;61829;53.286;10.434;2023-06-10T00:21:31;101618.84;;;13.61;83.96
73558;BME280;61829;53.286;10.434;2023-06-10T00:24:07;101617.16;;;13.60;84.02
73558;BME280;61829;53.286;10.434;2023-06-10T00:26:41;101618.47;;;13.64;83.81
73558;BME280;61829;53.286;10.434;2023-06-10T00:29:07;101615.97;;;13.62;84.82
73558;BME280;61829;53.286;10.434;2023-06-10T00:31:37;101617.53;;;13.57;84.95
73558;BME280;61829;53.286;10.434;2023-06-10T00:34:04;101604.53;;;13.52;85.36
73558;BME280;61829;53.286;10.434;2023-06-10T00:36:30;101616.59;;;13.50;85.11
73558;BME280;61829;53.286;10.434;2023-06-10T00:38:56;101612.88;;;13.51;84.99
73558;BME280;61829;53.286;10.434;2023-06-10T00:41:23;101612.66;;;13.52;85.25
73558;BME280;61829;53.286;10.434;2023-06-10T00:43:48;101616.78;;;13.48;85.79
73558;BME280;61829;53.286;10.434;2023-06-10T00:46:15;101613.56;;;13.44;86.18
73558;BME280;61829;53.286;10.434;2023-06-10T00:48:43;101610.31;;;13.49;85.68
73558;BME280;61829;53.286;10.434;2023-06-10T00:51:28;101618.91;;;13.53;85.91
73558;BME280;61829;53.286;10.434;2023-06-10T00:53:53;101620.41;;;13.55;85.58
73558;BME280;61829;53.286;10.434;2023-06-10T00:56:20;101619.03;;;13.59;84.85
73558;BME280;61829;53.286;10.434;2023-06-10T00:58:47;101611.53;;;13.61;85.34
73558;BME280;61829;53.286;10.434;2023-06-10T01:01:13;101608.56;;;13.56;85.98
73558;BME280;61829;53.286;10.434;2023-06-10T01:03:39;101612.19;;;13.48;86.50
73558;BME280;61829;53.286;10.434;2023-06-10T01:08:52;101625.81;;;13.40;86.83
73558;BME280;61829;53.286;10.434;2023-06-10T01:11:27;101609.75;;;13.39;87.13
73558;BME280;61829;53.286;10.434;2023-06-10T01:13:55;101610.25;;;13.42;86.96
73558;BME280;61829;53.286;10.434;2023-06-10T01:16:22;101615.94;;;13.47;86.30
73558;BME280;61829;53.286;10.434;2023-06-10T01:18:48;101608.38;;;13.43;86.82
73558;BME280;61829;53.286;10.434;2023-06-10T01:21:23;101607.53;;;13.42;86.47
73558;BME280;61829;53.286;10.434;2023-06-10T01:23:52;101609.19;;;13.43;86.72
73558;BME280;61829;53.286;10.434;2023-06-10T01:26:24;101611.91;;;13.43;86.91
73558;BME280;61829;53.286;10.434;2023-06-10T01:28:58;101616.94;;;13.46;86.13
73558;BME280;61829;53.286;10.434;2023-06-10T01:31:59;101609.88;;;13.45;86.61
73558;BME280;61829;53.286;10.434;2023-06-10T01:34:27;101614.81;;;13.42;87.03
73558;BME280;61829;53.286;10.434;2023-06-10T01:36:55;101614.81;;;13.42;87.29
73558;BME280;61829;53.286;10.434;2023-06-10T01:39:24;101619.00;;;13.44;86.19
73558;BME280;61829;53.286;10.434;2023-06-10T01:41:52;101611.06;;;13.43;86.95
73558;BME280;61829;53.286;10.434;2023-06-10T01:44:19;101619.09;;;13.36;86.93
73558;BME280;61829;53.286;10.434;2023-06-10T01:46:46;101612.34;;;13.32;87.09
73558;BME280;61829;53.286;10.434;2023-06-10T01:49:12;101607.13;;;13.31;87.35
73558;BME280;61829;53.286;10.434;2023-06-10T01:51:39;101615.53;;;13.36;86.49
73558;BME280;61829;53.286;10.434;2023-06-10T01:54:05;101618.06;;;13.37;86.64
73558;BME280;61829;53.286;10.434;2023-06-10T01:56:32;101618.97;;;13.30;87.46
73558;BME280;61829;53.286;10.434;2023-06-10T01:58:58;101610.06;;;13.21;87.41
73558;BME280;61829;53.286;10.434;2023-06-10T02:01:28;101609.88;;;13.22;87.46
73558;BME280;61829;53.286;10.434;2023-06-10T02:03:53;101610.97;;;13.13;88.25
73558;BME280;61829;53.286;10.434;2023-06-10T02:06:57;101602.69;;;13.15;88.13
73558;BME280;61829;53.286;10.434;2023-06-10T02:09:22;101610.63;;;13.16;87.94
73558;BME280;61829;53.286;10.434;2023-06-10T02:11:48;101601.38;;;13.11;87.82
73558;BME280;61829;53.286;10.434;2023-06-10T02:14:14;101612.53;;;13.08;88.01
73558;BME280;61829;53.286;10.434;2023-06-10T02:16:40;101613.19;;;13.10;87.44
73558;BME280;61829;53.286;10.434;2023-06-10T02:19:06;101618.38;;;13.19;87.01
73558;BME280;61829;53.286;10.434;2023-06-10T02:21:33;101622.59;;;13.22;86.75
73558;BME280;61829;53.286;10.434;2023-06-10T02:24:00;101618.97;;;13.30;86.08
73558;BME280;61829;53.286;10.434;2023-06-10T02:26:26;101618.59;;;13.33;86.00
73558;BME280;61829;53.286;10.434;2023-06-10T02:28:52;101625.06;;;13.32;86.13
73558;BME280;61829;53.286;10.434;2023-06-10T02:31:21;101630.34;;;13.25;86.10
73558;BME280;61829;53.286;10.434;2023-06-10T02:33:48;101635.41;;;13.28;85.65
73558;BME280;61829;53.286;10.434;2023-06-10T02:36:14;101631.53;;;13.22;85.84
73558;BME280;61829;53.286;10.434;2023-06-10T02:38:41;101625.81;;;13.17;86.32
73558;BME280;61829;53.286;10.434;2023-06-10T02:41:07;101632.97;;;13.10;86.42
73558;BME280;61829;53.286;10.434;2023-06-10T02:43:33;101629.63;;;13.08;86.02
73558;BME280;61829;53.286;10.434;2023-06-10T02:46:11;101642.97;;;13.10;86.04
73558;BME280;61829;53.286;10.434;2023-06-10T02:48:41;101639.72;;;13.14;85.01
73558;BME280;61829;53.286;10.434;2023-06-10T02:51:09;101637.69;;;13.16;84.83
73558;BME280;61829;53.286;10.434;2023-06-10T02:53:35;101639.72;;;13.14;85.59
73558;BME280;61829;53.286;10.434;2023-06-10T02:56:01;101641.59;;;13.14;84.84
73558;BME280;61829;53.286;10.434;2023-06-10T02:58:27;101639.44;;;13.09;84.93
73558;BME280;61829;53.286;10.434;2023-06-10T03:00:53;101634.38;;;13.06;85.14
73558;BME280;61829;53.286;10.434;2023-06-10T03:03:19;101637.25;;;13.04;85.24
73558;BME280;61829;53.286;10.434;2023-06-10T03:05:46;101644.38;;;13.06;85.04
73558;BME280;61829;53.286;10.434;2023-06-10T03:08:11;101635.28;;;12.98;85.32
73558;BME280;61829;53.286;10.434;2023-06-10T03:10:37;101634.13;;;12.93;85.21
73558;BME280;61829;53.286;10.434;2023-06-10T03:13:03;101635.06;;;12.85;85.30
73558;BME280;61829;53.286;10.434;2023-06-10T03:15:29;101641.16;;;12.79;85.89
73558;BME280;61829;53.286;10.434;2023-06-10T03:17:59;101638.22;;;12.66;86.46
73558;BME280;61829;53.286;10.434;2023-06-10T03:20:26;101641.75;;;12.66;86.90
73558;BME280;61829;53.286;10.434;2023-06-10T03:22:53;101639.53;;;12.70;86.84
73558;BME280;61829;53.286;10.434;2023-06-10T03:25:19;101644.41;;;12.74;86.02
73558;BME280;61829;53.286;10.434;2023-06-10T03:27:46;101651.34;;;12.77;85.81
73558;BME280;61829;53.286;10.434;2023-06-10T03:30:13;101647.06;;;12.83;85.78
73558;BME280;61829;53.286;10.434;2023-06-10T03:32:39;101653.19;;;12.76;86.06
73558;BME280;61829;53.286;10.434;2023-06-10T03:35:06;101649.16;;;12.72;86.08
73558;BME280;61829;53.286;10.434;2023-06-10T03:37:32;101648.13;;;12.73;86.14
73558;BME280;61829;53.286;10.434;2023-06-10T03:39:59;101642.03;;;12.79;85.48
73558;BME280;61829;53.286;10.434;2023-06-10T03:42:24;101653.13;;;12.85;85.15
73558;BME280;61829;53.286;10.434;2023-06-10T03:44:50;101649.88;;;12.89;85.39
73558;BME280;61829;53.286;10.434;2023-06-10T03:47:16;101644.78;;;12.94;85.20
73558;BME280;61829;53.286;10.434;2023-06-10T03:49:42;101631.91;;;12.96;84.74
73558;BME280;61829;53.286;10.434;2023-06-10T03:52:08;101640.31;;;13.01;84.66
73558;BME280;61829;53.286;10.434;2023-06-10T03:54:34;101633.03;;;13.02;84.65
73558;BME280;61829;53.286;10.434;2023-06-10T03:57:00;101641.66;;;13.06;85.83
73558;BME280;61829;53.286;10.434;2023-06-10T03:59:27;101638.59;;;13.09;84.62
73558;BME280;61829;53.286;10.434;2023-06-10T04:01:54;101633.34;;;13.07;85.64
73558;BME280;61829;53.286;10.434;2023-06-10T04:04:20;101635.03;;;13.08;84.85
73558;BME280;61829;53.286;10.434;2023-06-10T04:06:45;101640.16;;;13.03;85.35
73558;BME280;61829;53.286;10.434;2023-06-10T04:09:12;101644.66;;;13.11;84.91
73558;BME280;61829;53.286;10.434;2023-06-10T04:11:38;101646.81;;;13.15;83.50
73558;BME280;61829;53.286;10.434;2023-06-10T04:14:04;101644.25;;;13.22;83.61
73558;BME280;61829;53.286;10.434;2023-06-10T04:16:29;101642.50;;;13.29;83.07
73558;BME280;61829;53.286;10.434;2023-06-10T04:18:56;101642.88;;;13.26;82.84
73558;BME280;61829;53.286;10.434;2023-06-10T04:21:21;101642.38;;;13.22;83.63
73558;BME280;61829;53.286;10.434;2023-06-10T04:23:47;101652.22;;;13.15;83.31
73558;BME280;61829;53.286;10.434;2023-06-10T04:26:14;101651.56;;;13.13;83.99
73558;BME280;61829;53.286;10.434;2023-06-10T04:28:40;101656.81;;;13.15;83.50
73558;BME280;61829;53.286;10.434;2023-06-10T04:31:05;101654.25;;;13.13;83.85
73558;BME280;61829;53.286;10.434;2023-06-10T04:33:31;101649.88;;;13.12;84.13
73558;BME280;61829;53.286;10.434;2023-06-10T04:35:57;101644.94;;;13.16;84.13
73558;BME280;61829;53.286;10.434;2023-06-10T04:38:24;101646.25;;;13.28;83.13
73558;BME280;61829;53.286;10.434;2023-06-10T04:40:49;101655.13;;;13.37;82.86
73558;BME280;61829;53.286;10.434;2023-06-10T04:43:15;101647.94;;;13.44;82.30
73558;BME280;61829;53.286;10.434;2023-06-10T04:45:41;101646.94;;;13.60;82.16
73558;BME280;61829;53.286;10.434;2023-06-10T04:48:11;101646.88;;;13.68;81.67
73558;BME280;61829;53.286;10.434;2023-06-10T04:50:38;101651.53;;;13.74;81.53
73558;BME280;61829;53.286;10.434;2023-06-10T04:53:04;101651.53;;;13.74;81.05
73558;BME280;61829;53.286;10.434;2023-06-10T04:55:31;101661.72;;;13.72;81.09
73558;BME280;61829;53.286;10.434;2023-06-10T05:01:40;101650.50;;;13.75;80.87
73558;BME280;61829;53.286;10.434;2023-06-10T05:04:06;101649.38;;;13.69;81.66
73558;BME280;61829;53.286;10.434;2023-06-10T05:06:31;101653.13;;;13.68;81.47
73558;BME280;61829;53.286;10.434;2023-06-10T05:08:57;101655.00;;;13.68;81.89
73558;BME280;61829;53.286;10.434;2023-06-10T05:11:24;101658.63;;;13.75;82.20
73558;BME280;61829;53.286;10.434;2023-06-10T05:13:50;101654.38;;;13.96;81.47
73558;BME280;61829;53.286;10.434;2023-06-10T05:16:16;101659.19;;;14.15;79.74
73558;BME280;61829;53.286;10.434;2023-06-10T05:18:41;101655.06;;;14.34;79.26
73558;BME280;61829;53.286;10.434;2023-06-10T05:21:07;101657.00;;;14.55;79.01
73558;BME280;61829;53.286;10.434;2023-06-10T05:23:33;101652.41;;;14.70;78.28
73558;BME280;61829;53.286;10.434;2023-06-10T05:26:00;101655.50;;;14.89;77.32
73558;BME280;61829;53.286;10.434;2023-06-10T05:28:28;101661.66;;;15.19;76.71
73558;BME280;61829;53.286;10.434;2023-06-10T05:30:53;101663.34;;;15.48;74.75
73558;BME280;61829;53.286;10.434;2023-06-10T05:33:19;101667.59;;;15.79;73.39
73558;BME280;61829;53.286;10.434;2023-06-10T05:35:45;101668.00;;;16.10;71.71
73558;BME280;61829;53.286;10.434;2023-06-10T05:38:11;101665.94;;;16.19;71.03
73558;BME280;61829;53.286;10.434;2023-06-10T05:40:37;101659.31;;;16.28;71.27
73558;BME280;61829;53.286;10.434;2023-06-10T05:43:03;101657.31;;;16.50;69.64
73558;BME280;61829;53.286;10.434;2023-06-10T05:45:29;101661.28;;;16.48;70.10
73558;BME280;61829;53.286;10.434;2023-06-10T05:47:55;101654.22;;;16.67;68.99
73558;BME280;61829;53.286;10.434;2023-06-10T05:50:21;101643.81;;;16.77;68.65
73558;BME280;61829;53.286;10.434;2023-06-10T05:52:47;101646.38;;;17.32;66.81
73558;BME280;61829;53.286;10.434;2023-06-10T05:55:37;101644.88;;;17.89;64.75
73558;BME280;61829;53.286;10.434;2023-06-10T05:58:03;101639.91;;;18.37;62.92
73558;BME280;61829;53.286;10.434;2023-06-10T06:00:28;101637.22;;;18.69;62.04
73558;BME280;61829;53.286;10.434;2023-06-10T06:02:55;101638.34;;;18.93;60.79
73558;BME280;61829;53.286;10.434;2023-06-10T06:05:22;101632.13;;;19.36;59.93
73558;BME280;61829;53.286;10.434;2023-06-10T06:07:49;101626.88;;;19.35;58.91
73558;BME280;61829;53.286;10.434;2023-06-10T06:10:17;101630.19;;;19.43;59.15
73558;BME280;61829;53.286;10.434;2023-06-10T06:12:43;101632.00;;;19.49;59.50
73558;BME280;61829;53.286;10.434;2023-06-10T06:15:09;101643.88;;;20.05;57.29
73558;BME280;61829;53.286;10.434;2023-06-10T06:17:35;101628.41;;;20.48;56.03
73558;BME280;61829;53.286;10.434;2023-06-10T06:20:04;101619.88;;;20.86;54.18
73558;BME280;61829;53.286;10.434;2023-06-10T06:22:31;101623.03;;;21.01;53.87
73558;BME280;61829;53.286;10.434;2023-06-10T06:24:58;101619.75;;;20.81;54.90
73558;BME280;61829;53.286;10.434;2023-06-10T06:27:24;101617.59;;;20.83;54.84
73558;BME280;61829;53.286;10.434;2023-06-10T06:29:50;101621.25;;;21.07;54.01
73558;BME280;61829;53.286;10.434;2023-06-10T06:32:17;101620.81;;;20.80;54.75
73558;BME280;61829;53.286;10.434;2023-06-10T06:34:42;101620.06;;;21.15;54.07
73558;BME280;61829;53.286;10.434;2023-06-10T06:37:08;101622.72;;;20.79;54.73
73558;BME280;61829;53.286;10.434;2023-06-10T06:39:34;101623.00;;;20.90;54.56
73558;BME280;61829;53.286;10.434;2023-06-10T06:42:00;101627.38;;;21.33;53.49
73558;BME280;61829;53.286;10.434;2023-06-10T06:44:26;101630.50;;;21.83;52.60
73558;BME280;61829;53.286;10.434;2023-06-10T06:46:52;101628.56;;;21.95;51.66
73558;BME280;61829;53.286;10.434;2023-06-10T06:49:17;101637.38;;;21.97;51.68
73558;BME280;61829;53.286;10.434;2023-06-10T06:51:43;101639.88;;;21.99;51.54
73558;BME280;61829;53.286;10.434;2023-06-10T06:54:09;101644.56;;;22.51;50.55
73558;BME280;61829;53.286;10.434;2023-06-10T06:56:35;101633.66;;;22.84;48.95
73558;BME280;61829;53.286;10.434;2023-06-10T06:59:00;101636.19;;;23.03;49.64
73558;BME280;61829;53.286;10.434;2023-06-10T07:01:36;101647.53;;;23.06;48.14
73558;BME280;61829;53.286;10.434;2023-06-10T07:04:01;101648.28;;;22.73;50.04
73558;BME280;61829;53.286;10.434;2023-06-10T07:06:27;101637.97;;;22.80;50.28
73558;BME280;61829;53.286;10.434;2023-06-10T07:08:53;101645.81;;;22.89;50.13
73558;BME280;61829;53.286;10.434;2023-06-10T07:11:18;101639.47;;;23.34;48.46
73558;BME280;61829;53.286;10.434;2023-06-10T07:13:44;101651.38;;;23.39;48.83
73558;BME280;61829;53.286;10.434;2023-06-10T07:16:10;101648.06;;;22.92;49.44
73558;BME280;61829;53.286;10.434;2023-06-10T07:18:36;101647.28;;;23.08;49.25
73558;BME280;61829;53.286;10.434;2023-06-10T07:21:02;101652.38;;;23.16;49.40
73558;BME280;61829;53.286;10.434;2023-06-10T07:23:28;101660.13;;;23.02;48.87
73558;BME280;61829;53.286;10.434;2023-06-10T07:25:54;101664.13;;;23.12;50.16
73558;BME280;61829;53.286;10.434;2023-06-10T07:28:20;101657.47;;;23.58;48.57
73558;BME280;61829;53.286;10.434;2023-06-10T07:30:46;101665.28;;;23.66;48.26
73558;BME280;61829;53.286;10.434;2023-06-10T07:33:12;101664.88;;;23.74;47.13
73558;BME280;61829;53.286;10.434;2023-06-10T07:35:38;101661.03;;;24.14;47.72
73558;BME280;61829;53.286;10.434;2023-06-10T07:38:04;101667.53;;;24.47;46.22
73558;BME280;61829;53.286;10.434;2023-06-10T07:40:30;101658.78;;;24.33;46.82
73558;BME280;61829;53.286;10.434;2023-06-10T07:42:56;101658.75;;;24.06;47.06
73558;BME280;61829;53.286;10.434;2023-06-10T07:45:21;101666.53;;;24.14;47.37
73558;BME280;61829;53.286;10.434;2023-06-10T07:47:47;101656.03;;;24.11;46.98
73558;BME280;61829;53.286;10.434;2023-06-10T07:50:13;101662.44;;;24.17;47.02
73558;BME280;61829;53.286;10.434;2023-06-10T07:52:39;101667.19;;;24.22;47.72
73558;BME280;61829;53.286;10.434;2023-06-10T07:55:05;101657.72;;;24.56;46.69
73558;BME280;61829;53.286;10.434;2023-06-10T07:57:31;101656.44;;;24.64;45.67
73558;BME280;61829;53.286;10.434;2023-06-10T08:00:00;101648.31;;;24.79;45.63
73558;BME280;61829;53.286;10.434;2023-06-10T08:02:28;101655.28;;;24.87;45.64
73558;BME280;61829;53.286;10.434;2023-06-10T08:04:53;101644.06;;;24.67;45.79
73558;BME280;61829;53.286;10.434;2023-06-10T08:07:19;101636.56;;;24.89;45.82
73558;BME280;61829;53.286;10.434;2023-06-10T08:09:45;101640.81;;;25.02;45.38
73558;BME280;61829;53.286;10.434;2023-06-10T08:12:12;101646.81;;;25.21;45.74
73558;BME280;61829;53.286;10.434;2023-06-10T08:14:37;101645.72;;;24.95;45.54
73558;BME280;61829;53.286;10.434;2023-06-10T08:17:04;101645.28;;;25.08;45.58
73558;BME280;61829;53.286;10.434;2023-06-10T08:19:31;101640.38;;;25.42;45.87
73558;BME280;61829;53.286;10.434;2023-06-10T08:21:58;101636.16;;;25.35;45.08
73558;BME280;61829;53.286;10.434;2023-06-10T08:24:24;101633.44;;;25.40;45.47
73558;BME280;61829;53.286;10.434;2023-06-10T08:26:50;101643.88;;;25.33;44.66
73558;BME280;61829;53.286;10.434;2023-06-10T08:29:16;101635.47;;;25.54;45.23
73558;BME280;61829;53.286;10.434;2023-06-10T08:31:43;101637.63;;;25.47;46.26
73558;BME280;61829;53.286;10.434;2023-06-10T08:34:09;101632.44;;;25.19;45.53
73558;BME280;61829;53.286;10.434;2023-06-10T08:36:38;101643.09;;;25.37;45.77
73558;BME280;61829;53.286;10.434;2023-06-10T08:39:04;101629.72;;;25.61;45.20
73558;BME280;61829;53.286;10.434;2023-06-10T08:41:33;101636.59;;;25.53;44.11
73558;BME280;61829;53.286;10.434;2023-06-10T08:44:18;101636.50;;;25.11;45.48
73558;BME280;61829;53.286;10.434;2023-06-10T08:46:48;101644.31;;;24.65;46.47
73558;BME280;61829;53.286;10.434;2023-06-10T08:49:18;101643.84;;;24.73;46.72
73558;BME280;61829;53.286;10.434;2023-06-10T08:51:59;101634.06;;;25.15;45.55
73558;BME280;61829;53.286;10.434;2023-06-10T08:54:31;101636.41;;;25.33;45.65
73558;BME280;61829;53.286;10.434;2023-06-10T08:56:59;101635.13;;;25.46;46.50
73558;BME280;61829;53.286;10.434;2023-06-10T08:59:25;101632.38;;;25.46;45.28
73558;BME280;61829;53.286;10.434;2023-06-10T09:01:52;101638.34;;;25.75;45.12
73558;BME280;61829;53.286;10.434;2023-06-10T09:04:19;101636.94;;;26.15;44.93
73558;BME280;61829;53.286;10.434;2023-06-10T09:06:46;101644.66;;;25.65;44.92
73558;BME280;61829;53.286;10.434;2023-06-10T09:09:14;101638.81;;;25.57;44.81
73558;BME280;61829;53.286;10.434;2023-06-10T09:11:43;101641.78;;;25.92;46.44
73558;BME280;61829;53.286;10.434;2023-06-10T09:14:08;101644.13;;;26.21;43.93
73558;BME280;61829;53.286;10.434;2023-06-10T09:16:35;101641.28;;;25.58;45.21
73558;BME280;61829;53.286;10.434;2023-06-10T09:19:01;101635.56;;;25.65;45.86
73558;BME280;61829;53.286;10.434;2023-06-10T09:21:34;101637.63;;;25.90;45.13
73558;BME280;61829;53.286;10.434;2023-06-10T09:24:01;101631.91;;;26.07;45.95
73558;BME280;61829;53.286;10.434;2023-06-10T09:26:31;101627.75;;;26.04;45.84
73558;BME280;61829;53.286;10.434;2023-06-10T09:29:04;101633.09;;;26.16;45.48
73558;BME280;61829;53.286;10.434;2023-06-10T09:31:32;101641.94;;;26.23;44.56
73558;BME280;61829;53.286;10.434;2023-06-10T09:36:34;101634.34;;;25.93;45.88
73558;BME280;61829;53.286;10.434;2023-06-10T09:39:01;101635.41;;;25.87;45.46
73558;BME280;61829;53.286;10.434;2023-06-10T09:42:17;101631.13;;;26.11;45.48
73558;BME280;61829;53.286;10.434;2023-06-10T09:44:52;101629.81;;;26.34;45.49
73558;BME280;61829;53.286;10.434;2023-06-10T09:47:22;101631.06;;;26.64;44.46
73558;BME280;61829;53.286;10.434;2023-06-10T09:49:51;101623.06;;;26.88;43.27
73558;BME280;61829;53.286;10.434;2023-06-10T09:52:24;101620.56;;;26.81;43.20
73558;BME280;61829;53.286;10.434;2023-06-10T09:54:55;101622.75;;;26.74;43.51
73558;BME280;61829;53.286;10.434;2023-06-10T10:01:21;101616.13;;;27.06;43.05
73558;BME280;61829;53.286;10.434;2023-06-10T10:03:49;101625.56;;;27.05;43.20
73558;BME280;61829;53.286;10.434;2023-06-10T10:06:17;101623.88;;;26.78;44.12
73558;BME280;61829;53.286;10.434;2023-06-10T10:08:45;101629.44;;;26.94;44.46
73558;BME280;61829;53.286;10.434;2023-06-10T10:11:12;101622.50;;;26.86;44.86
73558;BME280;61829;53.286;10.434;2023-06-10T10:13:39;101609.22;;;27.03;44.38
73558;BME280;61829;53.286;10.434;2023-06-10T10:16:16;101615.06;;;27.12;43.76
73558;BME280;61829;53.286;10.434;2023-06-10T10:18:46;101612.56;;;27.31;43.79
73558;BME280;61829;53.286;10.434;2023-06-10T10:21:23;101618.41;;;27.35;43.85
73558;BME280;61829;53.286;10.434;2023-06-10T10:24:01;101622.78;;;27.46;42.96
73558;BME280;61829;53.286;10.434;2023-06-10T10:26:33;101612.31;;;27.33;43.65
73558;BME280;61829;53.286;10.434;2023-06-10T10:31:56;101614.47;;;27.56;43.77
73558;BME280;61829;53.286;10.434;2023-06-10T10:36:59;101614.22;;;27.42;42.98
73558;BME280;61829;53.286;10.434;2023-06-10T10:39:26;101619.50;;;27.39;42.93
73558;BME280;61829;53.286;10.434;2023-06-10T10:41:55;101620.31;;;27.49;43.73
73558;BME280;61829;53.286;10.434;2023-06-10T10:44:21;101621.91;;;27.71;42.77
73558;BME280;61829;53.286;10.434;2023-06-10T10:50:25;101609.81;;;27.41;43.94
73558;BME280;61829;53.286;10.434;2023-06-10T10:52:59;101611.13;;;27.59;43.98
73558;BME280;61829;53.286;10.434;2023-06-10T10:55:26;101604.47;;;27.70;43.12
73558;BME280;61829;53.286;10.434;2023-06-10T10:57:59;101604.41;;;27.91;43.01
73558;BME280;61829;53.286;10.434;2023-06-10T11:00:43;101612.72;;;28.01;42.46
73558;BME280;61829;53.286;10.434;2023-06-10T11:03:13;101611.94;;;27.85;43.17
73558;BME280;61829;53.286;10.434;2023-06-10T11:05:41;101608.56;;;27.98;42.92
73558;BME280;61829;53.286;10.434;2023-06-10T11:08:11;101602.47;;;27.96;42.25
73558;BME280;61829;53.286;10.434;2023-06-10T11:10:41;101610.53;;;27.83;43.93
73558;BME280;61829;53.286;10.434;2023-06-10T11:13:19;101612.72;;;27.91;43.61
73558;BME280;61829;53.286;10.434;2023-06-10T11:15:50;101609.84;;;28.16;42.76
73558;BME280;61829;53.286;10.434;2023-06-10T11:18:26;101608.34;;;28.45;41.68
73558;BME280;61829;53.286;10.434;2023-06-10T11:20:55;101602.28;;;28.37;40.94
73558;BME280;61829;53.286;10.434;2023-06-10T11:31:20;101596.59;;;28.63;40.71
73558;BME280;61829;53.286;10.434;2023-06-10T11:33:53;101591.09;;;28.58;40.84
73558;BME280;61829;53.286;10.434;2023-06-10T11:36:19;101590.41;;;28.32;40.88
73558;BME280;61829;53.286;10.434;2023-06-10T11:38:46;101580.72;;;28.24;40.71
73558;BME280;61829;53.286;10.434;2023-06-10T11:41:13;101583.94;;;28.41;40.52
73558;BME280;61829;53.286;10.434;2023-06-10T11:43:46;101576.75;;;28.46;40.49
73558;BME280;61829;53.286;10.434;2023-06-10T11:46:13;101580.44;;;28.70;39.86
73558;BME280;61829;53.286;10.434;2023-06-10T11:48:57;101584.38;;;28.64;39.50
73558;BME280;61829;53.286;10.434;2023-06-10T11:54:53;101581.97;;;28.52;41.14
73558;BME280;61829;53.286;10.434;2023-06-10T11:57:19;101581.13;;;28.57;40.59
73558;BME280;61829;53.286;10.434;2023-06-10T11:59:45;101580.06;;;28.48;40.12
73558;BME280;61829;53.286;10.434;2023-06-10T12:02:15;101577.59;;;28.46;40.94
73558;BME280;61829;53.286;10.434;2023-06-10T12:04:42;101573.03;;;28.60;40.61
73558;BME280;61829;53.286;10.434;2023-06-10T12:07:08;101571.09;;;28.61;40.28
73558;BME280;61829;53.286;10.434;2023-06-10T12:09:34;101581.47;;;28.45;39.56
73558;BME280;61829;53.286;10.434;2023-06-10T12:12:04;101580.97;;;28.28;40.30
73558;BME280;61829;53.286;10.434;2023-06-10T12:19:58;101573.22;;;28.30;39.45
73558;BME280;61829;53.286;10.434;2023-06-10T12:22:25;101573.28;;;28.19;40.18
73558;BME280;61829;53.286;10.434;2023-06-10T12:27:29;101573.09;;;28.50;40.02
73558;BME280;61829;53.286;10.434;2023-06-10T12:29:57;101568.66;;;28.54;40.43
73558;BME280;61829;53.286;10.434;2023-06-10T12:32:44;101561.09;;;28.65;39.98
73558;BME280;61829;53.286;10.434;2023-06-10T12:35:13;101550.81;;;29.05;39.37
73558;BME280;61829;53.286;10.434;2023-06-10T12:37:41;101549.41;;;29.31;38.85
73558;BME280;61829;53.286;10.434;2023-06-10T12:40:08;101538.91;;;29.28;38.72
73558;BME280;61829;53.286;10.434;2023-06-10T12:42:36;101551.06;;;29.32;39.05
73558;BME280;61829;53.286;10.434;2023-06-10T12:45:03;101549.00;;;29.43;38.65
73558;BME280;61829;53.286;10.434;2023-06-10T12:47:33;101533.16;;;29.44;37.86
73558;BME280;61829;53.286;10.434;2023-06-10T12:50:05;101534.19;;;29.53;36.96
73558;BME280;61829;53.286;10.434;2023-06-10T12:52:31;101533.00;;;29.59;37.01
73558;BME280;61829;53.286;10.434;2023-06-10T12:54:58;101530.97;;;29.70;36.92
73558;BME280;61829;53.286;10.434;2023-06-10T12:57:24;101536.31;;;29.61;36.88
73558;BME280;61829;53.286;10.434;2023-06-10T12:59:50;101526.50;;;29.69;36.88
73558;BME280;61829;53.286;10.434;2023-06-10T13:02:19;101527.13;;;29.61;36.45
73558;BME280;61829;53.286;10.434;2023-06-10T13:05:23;101518.19;;;29.45;36.44
73558;BME280;61829;53.286;10.434;2023-06-10T13:07:48;101523.41;;;29.46;36.54
73558;BME280;61829;53.286;10.434;2023-06-10T13:10:16;101521.53;;;29.42;35.73
73558;BME280;61829;53.286;10.434;2023-06-10T13:12:42;101517.53;;;29.53;36.50
73558;BME280;61829;53.286;10.434;2023-06-10T13:15:09;101517.81;;;29.51;36.41
73558;BME280;61829;53.286;10.434;2023-06-10T13:17:36;101507.19;;;29.59;37.00
73558;BME280;61829;53.286;10.434;2023-06-10T13:20:06;101517.91;;;29.41;35.69
73558;BME280;61829;53.286;10.434;2023-06-10T13:22:35;101509.34;;;29.14;35.61
73558;BME280;61829;53.286;10.434;2023-06-10T13:25:03;101509.53;;;29.22;36.96
73558;BME280;61829;53.286;10.434;2023-06-10T13:27:29;101517.81;;;29.27;37.03